createdAt,value
2023-02-15T00:01:20.672Z,28.60
2023-02-15T00:03:51.450Z,28.17
2023-02-15T00:06:20.074Z,30.23
2023-02-15T00:08:48.636Z,29.97
2023-02-15T00:11:43.241Z,28.07
2023-02-15T00:14:25.041Z,27.63
2023-02-15T00:16:55.872Z,26.20
2023-02-15T00:19:23.856Z,27.93
2023-02-15T00:21:51.560Z,26.80
2023-02-15T00:24:21.143Z,24.47
2023-02-15T00:26:50.990Z,26.27
2023-02-15T00:29:21.455Z,30.40
2023-02-15T00:31:49.781Z,30.20
2023-02-15T00:34:27.252Z,29.87
2023-02-15T00:36:55.898Z,30.20
2023-02-15T00:39:24.912Z,27.97
2023-02-15T00:41:53.164Z,29.20
2023-02-15T00:44:21.192Z,26.97
2023-02-15T00:46:49.259Z,28.30
2023-02-15T00:49:17.012Z,27.90
2023-02-15T00:51:44.806Z,28.67
2023-02-15T00:54:12.538Z,28.90
2023-02-15T00:56:40.447Z,28.63
2023-02-15T00:59:10.928Z,26.50
2023-02-15T01:01:39.249Z,28.07
2023-02-15T01:04:07.755Z,28.00
2023-02-15T01:06:35.469Z,26.73
2023-02-15T01:09:03.426Z,27.03
2023-02-15T01:11:31.277Z,26.73
2023-02-15T01:14:00.229Z,24.93
2023-02-15T01:16:30.376Z,27.30
2023-02-15T01:18:58.561Z,26.80
2023-02-15T01:21:28.021Z,26.30
2023-02-15T01:23:56.002Z,25.37
2023-02-15T01:26:23.813Z,28.20
2023-02-15T01:28:51.654Z,26.23
2023-02-15T01:31:22.614Z,27.30
2023-02-15T01:33:51.434Z,27.60
2023-02-15T01:36:19.217Z,26.43
2023-02-15T01:38:47.607Z,26.70
2023-02-15T01:41:21.594Z,27.97
2023-02-15T01:44:02.054Z,28.13
2023-02-15T01:46:52.567Z,25.40
2023-02-15T01:49:28.571Z,26.20
2023-02-15T01:51:56.882Z,27.30
2023-02-15T01:54:36.951Z,25.00
2023-02-15T01:57:19.560Z,25.70
2023-02-15T01:59:59.117Z,25.20
2023-02-15T02:02:28.555Z,26.57
2023-02-15T02:05:07.397Z,25.17
2023-02-15T02:07:45.007Z,27.33
2023-02-15T02:10:23.518Z,24.20
2023-02-15T02:13:00.936Z,25.10
2023-02-15T02:16:11.786Z,26.40
2023-02-15T02:19:27.724Z,25.17
2023-02-15T02:22:27.758Z,24.40
2023-02-15T02:26:12.963Z,27.20
2023-02-15T02:29:28.770Z,25.70
2023-02-15T02:32:48.841Z,27.47
2023-02-15T02:36:15.926Z,24.53
2023-02-15T02:39:41.338Z,23.97
2023-02-15T02:42:48.939Z,27.03
2023-02-15T02:45:56.223Z,25.97
2023-02-15T02:48:33.652Z,26.93
2023-02-15T02:51:01.890Z,27.13
2023-02-15T02:53:34.990Z,26.70
2023-02-15T02:56:31.730Z,27.17
2023-02-15T02:59:05.474Z,25.43
2023-02-15T03:02:14.138Z,25.50
2023-02-15T03:04:59.757Z,26.23
2023-02-15T03:07:32.730Z,25.40
2023-02-15T03:10:07.274Z,28.13
2023-02-15T03:12:42.326Z,27.67
2023-02-15T03:15:25.890Z,27.50
2023-02-15T03:18:04.696Z,26.20
2023-02-15T03:20:39.313Z,26.20
2023-02-15T03:23:26.841Z,25.83
2023-02-15T03:26:06.727Z,26.40
2023-02-15T03:28:47.047Z,27.60
2023-02-15T03:31:20.725Z,27.97
2023-02-15T03:34:07.481Z,29.00
2023-02-15T03:37:12.436Z,28.77
2023-02-15T03:40:23.492Z,26.97
2023-02-15T03:43:18.415Z,27.07
2023-02-15T03:45:56.770Z,28.73
2023-02-15T03:48:43.512Z,32.03
2023-02-15T03:51:34.641Z,30.73
2023-02-15T03:54:47.591Z,30.27
2023-02-15T03:57:49.055Z,27.20
2023-02-15T04:00:44.732Z,30.10
2023-02-15T04:03:46.302Z,28.30
2023-02-15T04:06:14.196Z,28.03
2023-02-15T04:09:00.660Z,29.10
2023-02-15T04:11:28.478Z,30.60
2023-02-15T04:13:57.705Z,29.27
2023-02-15T04:16:26.885Z,26.93
2023-02-15T04:19:13.087Z,26.97
2023-02-15T04:21:59.182Z,29.43
2023-02-15T04:24:45.502Z,29.33
2023-02-15T04:27:13.421Z,26.60
2023-02-15T04:29:41.228Z,26.33
2023-02-15T04:32:08.980Z,29.80
2023-02-15T04:34:36.892Z,28.00
2023-02-15T04:37:04.772Z,26.73
2023-02-15T04:39:33.245Z,29.60
2023-02-15T04:42:01.116Z,29.30
2023-02-15T04:44:28.815Z,29.50
2023-02-15T04:46:56.608Z,28.13
2023-02-15T04:49:24.369Z,29.07
2023-02-15T04:51:52.116Z,27.80
2023-02-15T04:54:19.868Z,28.60
2023-02-15T04:56:47.929Z,26.57
2023-02-15T04:59:16.071Z,30.97
2023-02-15T05:01:43.765Z,29.40
2023-02-15T05:04:11.897Z,27.43
2023-02-15T05:06:39.626Z,27.70
2023-02-15T05:09:07.564Z,31.40
2023-02-15T05:11:35.442Z,28.97
2023-02-15T05:14:03.443Z,30.77
2023-02-15T05:16:31.338Z,28.97
2023-02-15T05:18:59.074Z,29.47
2023-02-15T05:21:27.375Z,30.17
2023-02-15T05:23:55.567Z,30.50
2023-02-15T05:26:45.346Z,30.23
2023-02-15T05:29:13.210Z,27.27
2023-02-15T05:31:41.226Z,28.87
2023-02-15T05:34:09.193Z,27.80
2023-02-15T05:36:36.892Z,28.30
2023-02-15T05:39:07.018Z,26.50
2023-02-15T05:41:34.777Z,28.43
2023-02-15T05:44:02.535Z,28.13
2023-02-15T05:46:30.331Z,28.83
2023-02-15T05:48:57.973Z,29.80
2023-02-15T05:51:25.658Z,28.20
2023-02-15T05:53:53.316Z,31.03
2023-02-15T05:56:21.007Z,30.70
2023-02-15T05:58:49.024Z,30.50
2023-02-15T06:01:23.547Z,31.97
2023-02-15T06:03:51.555Z,31.00
2023-02-15T06:06:19.402Z,30.93
2023-02-15T06:08:48.162Z,31.40
2023-02-15T06:11:16.058Z,28.63
2023-02-15T06:13:43.927Z,28.33
2023-02-15T06:16:11.785Z,31.20
2023-02-15T06:18:39.742Z,29.90
2023-02-15T06:21:07.324Z,32.30
2023-02-15T06:23:35.026Z,28.90
2023-02-15T06:26:02.904Z,32.70
2023-02-15T06:28:30.929Z,33.63
2023-02-15T06:30:58.878Z,33.27
2023-02-15T06:33:26.688Z,31.20
2023-02-15T06:35:54.581Z,33.17
2023-02-15T06:38:22.188Z,31.00
2023-02-15T06:40:49.924Z,31.23
2023-02-15T06:43:17.624Z,32.63
2023-02-15T06:45:45.209Z,31.23
2023-02-15T06:48:12.884Z,32.90
2023-02-15T06:50:41.405Z,30.73
2023-02-15T06:53:09.171Z,29.47
2023-02-15T06:55:36.789Z,26.37
2023-02-15T06:58:04.764Z,29.30
2023-02-15T07:00:32.557Z,29.80
2023-02-15T07:03:03.093Z,30.87
2023-02-15T07:05:34.766Z,31.97
2023-02-15T07:08:02.784Z,33.43
2023-02-15T07:10:30.858Z,31.00
2023-02-15T07:12:58.568Z,31.23
2023-02-15T07:15:26.311Z,30.80
2023-02-15T07:17:54.076Z,34.13
2023-02-15T07:20:25.412Z,36.20
2023-02-15T07:22:53.387Z,34.70
2023-02-15T07:25:21.462Z,35.00
2023-02-15T07:27:49.523Z,35.20
2023-02-15T07:30:18.938Z,37.77
2023-02-15T07:33:06.002Z,36.50
2023-02-15T07:35:35.261Z,42.27
2023-02-15T07:38:03.151Z,37.93
2023-02-15T07:40:30.980Z,36.67
2023-02-15T07:43:00.447Z,37.47
2023-02-15T07:45:28.471Z,37.40
2023-02-15T07:47:56.164Z,41.20
2023-02-15T07:50:24.240Z,39.70
2023-02-15T07:52:51.876Z,40.77
2023-02-15T07:55:20.117Z,37.23
2023-02-15T07:57:51.325Z,37.23
2023-02-15T08:00:25.958Z,36.60
2023-02-15T08:03:16.051Z,37.10
2023-02-15T08:05:46.715Z,41.73
2023-02-15T08:08:31.106Z,36.90
2023-02-15T08:11:37.799Z,37.60
2023-02-15T08:14:21.520Z,38.13
2023-02-15T08:16:53.943Z,40.23
2023-02-15T08:19:30.797Z,35.73
2023-02-15T08:22:05.129Z,34.97
2023-02-15T08:24:38.267Z,35.50
2023-02-15T08:27:11.286Z,35.90
2023-02-15T08:29:40.595Z,33.33
2023-02-15T08:32:13.606Z,31.43
2023-02-15T08:34:43.622Z,31.17
2023-02-15T08:37:11.434Z,28.60
2023-02-15T08:39:40.720Z,27.83
2023-02-15T08:42:08.420Z,28.17
2023-02-15T08:44:36.197Z,26.23
2023-02-15T08:47:05.107Z,27.17
2023-02-15T08:49:33.330Z,27.10
2023-02-15T08:52:01.059Z,26.47
2023-02-15T08:54:28.858Z,27.17
2023-02-15T08:56:56.690Z,27.47
2023-02-15T08:59:27.888Z,27.33
2023-02-15T09:01:56.587Z,30.20
2023-02-15T09:04:24.657Z,27.40
2023-02-15T09:06:53.898Z,27.33
2023-02-15T09:09:23.319Z,27.53
2023-02-15T09:11:59.095Z,25.50
2023-02-15T09:14:28.335Z,26.13
2023-02-15T09:16:56.751Z,27.70
2023-02-15T09:19:26.229Z,23.30
2023-02-15T09:21:54.408Z,26.80
2023-02-15T09:24:22.724Z,24.47
2023-02-15T09:26:51.467Z,25.63
2023-02-15T09:29:21.185Z,26.90
2023-02-15T09:31:52.456Z,25.57
2023-02-15T09:34:24.290Z,27.67
2023-02-15T09:36:53.224Z,24.20
2023-02-15T09:39:27.702Z,24.50
2023-02-15T09:42:38.931Z,25.03
2023-02-15T09:46:07.978Z,25.87
2023-02-15T09:48:46.387Z,26.07
2023-02-15T09:51:46.486Z,27.27
2023-02-15T09:55:25.975Z,24.80
2023-02-15T09:58:29.848Z,23.07
2023-02-15T10:01:41.793Z,26.27
2023-02-15T10:05:12.833Z,23.90
2023-02-15T10:09:04.742Z,23.73
2023-02-15T10:12:22.627Z,22.27
2023-02-15T10:16:22.665Z,20.83
2023-02-15T10:19:10.623Z,20.90
2023-02-15T10:22:35.089Z,24.57
2023-02-15T10:26:12.555Z,22.87
2023-02-15T10:29:37.853Z,21.57
2023-02-15T10:32:39.409Z,22.17
2023-02-15T10:36:42.175Z,21.63
2023-02-15T10:39:52.388Z,21.67
2023-02-15T10:43:14.397Z,21.20
2023-02-15T10:46:41.519Z,20.07
2023-02-15T10:50:12.243Z,20.60
2023-02-15T10:53:35.451Z,18.77
2023-02-15T10:56:40.063Z,19.40
2023-02-15T10:59:44.551Z,17.57
2023-02-15T11:03:47.820Z,17.43
2023-02-15T11:06:22.748Z,14.60
2023-02-15T11:09:19.259Z,13.83
2023-02-15T11:11:58.523Z,13.90
2023-02-15T11:15:21.218Z,13.60
2023-02-15T11:18:21.867Z,14.67
2023-02-15T11:21:09.715Z,12.60
2023-02-15T11:23:46.229Z,15.13
2023-02-15T11:26:52.118Z,14.50
2023-02-15T11:29:56.799Z,13.33
2023-02-15T11:32:40.631Z,13.13
2023-02-15T11:35:14.490Z,14.20
2023-02-15T11:37:58.982Z,14.20
2023-02-15T11:40:59.281Z,13.60
2023-02-15T11:43:57.644Z,13.03
2023-02-15T11:46:26.260Z,12.60
2023-02-15T11:48:54.691Z,12.10
2023-02-15T11:51:25.346Z,12.20
2023-02-15T11:53:54.241Z,12.40
2023-02-15T11:56:27.889Z,11.93
2023-02-15T11:59:12.108Z,12.40
2023-02-15T12:01:48.514Z,12.87
2023-02-15T12:04:45.392Z,12.17
2023-02-15T12:07:48.903Z,12.10
2023-02-15T12:11:09.915Z,12.00
2023-02-15T12:13:58.979Z,12.90
2023-02-15T12:16:34.028Z,12.33
2023-02-15T12:19:04.219Z,12.77
2023-02-15T12:21:44.251Z,11.93
2023-02-15T12:24:39.207Z,13.53
2023-02-15T12:27:28.768Z,11.63
2023-02-15T12:30:37.401Z,13.83
2023-02-15T12:33:34.008Z,12.60
2023-02-15T12:36:20.723Z,12.40
2023-02-15T12:39:13.847Z,11.13
2023-02-15T12:42:18.140Z,11.27
2023-02-15T12:45:32.923Z,12.30
2023-02-15T12:48:22.010Z,11.30
2023-02-15T12:50:55.929Z,12.77
2023-02-15T12:53:36.375Z,12.33
2023-02-15T12:56:11.369Z,12.77
2023-02-15T12:58:43.786Z,11.60
2023-02-15T13:01:25.552Z,12.20
2023-02-15T13:04:15.775Z,11.50
2023-02-15T13:06:55.879Z,12.53
2023-02-15T13:09:32.981Z,13.30
2023-02-15T13:12:35.220Z,12.50
2023-02-15T13:15:06.055Z,12.73
2023-02-15T13:17:35.879Z,12.50
2023-02-15T13:20:25.686Z,11.57
2023-02-15T13:23:09.604Z,11.90
2023-02-15T13:25:51.373Z,12.00
2023-02-15T13:28:38.017Z,11.67
2023-02-15T13:31:16.520Z,11.80
2023-02-15T13:33:57.075Z,11.30
2023-02-15T13:36:52.060Z,11.60
2023-02-15T13:39:50.195Z,10.20
2023-02-15T13:42:41.022Z,10.40
2023-02-15T13:45:47.926Z,11.30
2023-02-15T13:49:14.712Z,11.37
2023-02-15T13:51:54.795Z,11.87
2023-02-15T13:55:34.962Z,11.70
2023-02-15T13:58:37.498Z,11.50
2023-02-15T14:01:55.286Z,12.67
2023-02-15T14:04:48.058Z,12.57
2023-02-15T14:07:33.941Z,12.27
2023-02-15T14:10:57.337Z,11.20
2023-02-15T14:14:19.270Z,11.50
2023-02-15T14:17:25.195Z,12.27
2023-02-15T14:20:22.872Z,11.47
2023-02-15T14:24:17.851Z,14.20
2023-02-15T14:27:23.152Z,12.17
2023-02-15T14:30:06.393Z,12.63
2023-02-15T14:33:11.462Z,12.23
2023-02-15T14:35:41.739Z,13.60
2023-02-15T14:38:47.838Z,10.70
2023-02-15T14:41:38.544Z,11.77
2023-02-15T14:44:51.853Z,11.87
2023-02-15T14:47:44.428Z,11.83
2023-02-15T14:50:45.203Z,11.70
2023-02-15T14:53:32.073Z,11.83
2023-02-15T14:56:11.957Z,12.17
2023-02-15T14:58:59.702Z,11.87
2023-02-15T15:01:36.190Z,11.97
2023-02-15T15:05:03.522Z,11.50
2023-02-15T15:07:45.114Z,10.97
2023-02-15T15:10:18.773Z,11.30
2023-02-15T15:12:52.290Z,11.47
2023-02-15T15:15:29.793Z,11.93
2023-02-15T15:18:09.822Z,11.37
2023-02-15T15:20:51.960Z,13.07
2023-02-15T15:23:19.792Z,12.60
2023-02-15T15:26:34.410Z,14.10
2023-02-15T15:29:03.418Z,13.57
2023-02-15T15:31:56.430Z,12.27
2023-02-15T15:35:36.772Z,13.20
2023-02-15T15:38:51.991Z,11.50
2023-02-15T15:42:20.247Z,12.60
2023-02-15T15:46:07.358Z,12.37
2023-02-15T15:48:41.733Z,13.07
2023-02-15T15:51:35.126Z,13.00
2023-02-15T15:54:05.251Z,12.37
2023-02-15T15:56:38.841Z,12.40
2023-02-15T15:59:19.740Z,12.20
2023-02-15T16:01:50.980Z,11.63
2023-02-15T16:04:36.049Z,13.13
2023-02-15T16:07:27.777Z,13.37
2023-02-15T16:10:40.096Z,12.30
2023-02-15T16:13:23.318Z,13.83
2023-02-15T16:16:15.781Z,12.93
2023-02-15T16:18:55.000Z,13.37
2023-02-15T16:21:47.405Z,11.60
2023-02-15T16:25:36.546Z,12.50
2023-02-15T16:28:28.529Z,13.90
2023-02-15T16:31:38.797Z,12.23
2023-02-15T16:34:31.191Z,11.03
2023-02-15T16:37:29.672Z,11.73
2023-02-15T16:39:59.664Z,12.20
2023-02-15T16:42:30.276Z,10.77
2023-02-15T16:45:21.023Z,13.93
2023-02-15T16:47:58.201Z,11.30
2023-02-15T16:50:39.571Z,12.67
2023-02-15T16:53:22.593Z,11.73
2023-02-15T16:56:00.759Z,12.40
2023-02-15T16:58:55.187Z,10.90
2023-02-15T17:01:32.007Z,12.03
2023-02-15T17:04:35.635Z,11.80
2023-02-15T17:07:22.189Z,12.70
2023-02-15T17:09:58.057Z,13.00
2023-02-15T17:12:58.979Z,12.00
2023-02-15T17:16:06.529Z,12.60
2023-02-15T17:18:46.347Z,13.70
2023-02-15T17:21:40.951Z,13.03
2023-02-15T17:24:32.190Z,13.90
2023-02-15T17:27:29.384Z,13.60
2023-02-15T17:30:03.481Z,12.63
2023-02-15T17:32:37.414Z,12.93
2023-02-15T17:35:33.160Z,13.27
2023-02-15T17:38:22.305Z,13.60
2023-02-15T17:40:50.096Z,13.77
2023-02-15T17:43:17.627Z,12.87
2023-02-15T17:45:53.846Z,14.90
2023-02-15T17:48:40.478Z,11.50
2023-02-15T17:51:15.426Z,12.40
2023-02-15T17:54:04.083Z,13.37
2023-02-15T17:56:37.124Z,13.70
2023-02-15T17:59:10.386Z,13.67
2023-02-15T18:02:09.072Z,16.00
2023-02-15T18:04:57.090Z,14.80
2023-02-15T18:07:43.547Z,12.93
2023-02-15T18:10:38.243Z,15.67
2023-02-15T18:13:06.113Z,16.03
2023-02-15T18:15:34.953Z,15.20
2023-02-15T18:18:03.427Z,15.07
2023-02-15T18:20:37.580Z,13.93
2023-02-15T18:23:06.600Z,13.97
2023-02-15T18:25:34.314Z,13.73
2023-02-15T18:28:01.962Z,15.50
2023-02-15T18:30:31.312Z,13.83
2023-02-15T18:33:00.855Z,14.40
2023-02-15T18:35:33.619Z,13.33
2023-02-15T18:38:02.450Z,13.43
2023-02-15T18:40:30.963Z,14.30
2023-02-15T18:42:58.735Z,14.93
2023-02-15T18:45:35.304Z,13.60
2023-02-15T18:48:04.552Z,14.73
2023-02-15T18:50:36.844Z,13.77
2023-02-15T18:53:19.112Z,14.37
2023-02-15T18:55:47.856Z,14.73
2023-02-15T18:58:23.763Z,13.90
2023-02-15T19:00:51.573Z,14.13
2023-02-15T19:03:19.516Z,14.70
2023-02-15T19:05:48.737Z,14.37
2023-02-15T19:08:24.798Z,16.17
2023-02-15T19:10:52.974Z,15.30
2023-02-15T19:13:20.702Z,13.83
2023-02-15T19:15:48.508Z,41.83
2023-02-15T19:18:17.068Z,17.53
2023-02-15T19:20:48.068Z,15.47
2023-02-15T19:23:24.666Z,14.23
2023-02-15T19:25:55.076Z,17.13
2023-02-15T19:28:34.564Z,15.67
2023-02-15T19:31:02.757Z,16.30
2023-02-15T19:33:30.711Z,17.50
2023-02-15T19:35:58.739Z,17.83
2023-02-15T19:38:35.197Z,17.20
2023-02-15T19:41:16.474Z,18.53
2023-02-15T19:43:55.749Z,17.50
2023-02-15T19:46:26.233Z,17.90
2023-02-15T19:48:55.381Z,16.30
2023-02-15T19:51:25.618Z,15.83
2023-02-15T19:53:53.763Z,16.37
2023-02-15T19:56:27.728Z,16.03
2023-02-15T19:58:57.908Z,14.73
2023-02-15T20:01:25.893Z,15.77
2023-02-15T20:03:54.794Z,17.27
2023-02-15T20:06:22.469Z,15.43
2023-02-15T20:08:51.168Z,16.30
2023-02-15T20:11:19.233Z,17.10
2023-02-15T20:13:47.065Z,17.00
2023-02-15T20:16:15.102Z,16.90
2023-02-15T20:18:46.532Z,17.60
2023-02-15T20:21:19.196Z,16.93
2023-02-15T20:23:46.990Z,16.07
2023-02-15T20:26:19.057Z,16.90
2023-02-15T20:28:48.746Z,16.50
2023-02-15T20:31:20.726Z,19.30
2023-02-15T20:33:49.833Z,19.47
2023-02-15T20:36:22.728Z,19.43
2023-02-15T20:38:51.065Z,18.63
2023-02-15T20:41:37.790Z,20.03
2023-02-15T20:44:31.403Z,18.00
2023-02-15T20:47:01.660Z,18.60
2023-02-15T20:49:29.654Z,21.37
2023-02-15T20:51:58.867Z,20.70
2023-02-15T20:54:34.632Z,20.00
2023-02-15T20:57:02.910Z,20.17
2023-02-15T20:59:34.763Z,19.33
2023-02-15T21:02:23.980Z,18.20
2023-02-15T21:04:52.212Z,19.27
2023-02-15T21:07:22.253Z,18.07
2023-02-15T21:09:50.403Z,19.90
2023-02-15T21:12:21.815Z,19.23
2023-02-15T21:14:49.674Z,18.40
2023-02-15T21:17:23.427Z,18.67
2023-02-15T21:19:53.393Z,18.57
2023-02-15T21:22:23.374Z,18.17
2023-02-15T21:24:56.062Z,17.87
2023-02-15T21:27:26.400Z,19.20
2023-02-15T21:29:55.851Z,18.77
2023-02-15T21:32:34.192Z,20.33
2023-02-15T21:35:03.644Z,17.73
2023-02-15T21:37:39.125Z,18.83
2023-02-15T21:40:33.830Z,18.20
2023-02-15T21:43:22.480Z,16.57
2023-02-15T21:46:12.330Z,18.50
2023-02-15T21:48:40.987Z,19.63
2023-02-15T21:51:28.002Z,19.20
2023-02-15T21:53:56.533Z,18.50
2023-02-15T21:56:25.601Z,17.90
2023-02-15T21:58:54.754Z,19.07
2023-02-15T22:01:37.317Z,19.00
2023-02-15T22:04:29.110Z,19.17
2023-02-15T22:06:58.247Z,16.77
2023-02-15T22:09:33.847Z,18.90
2023-02-15T22:12:20.859Z,18.47
2023-02-15T22:14:55.702Z,20.97
2023-02-15T22:17:30.969Z,19.53
2023-02-15T22:19:59.602Z,19.30
2023-02-15T22:22:30.694Z,20.87
2023-02-15T22:24:59.008Z,19.93
2023-02-15T22:27:31.759Z,19.40
2023-02-15T22:30:00.717Z,18.27
2023-02-15T22:32:33.353Z,19.43
2023-02-15T22:35:02.061Z,19.70
2023-02-15T22:37:30.378Z,20.80
2023-02-15T22:39:58.233Z,20.33
2023-02-15T22:42:30.004Z,21.17
2023-02-15T22:45:00.179Z,21.73
2023-02-15T22:47:32.877Z,20.53
2023-02-15T22:50:29.140Z,23.23
2023-02-15T22:53:03.612Z,19.63
2023-02-15T22:55:40.290Z,21.70
2023-02-15T22:58:24.334Z,21.47
2023-02-15T23:00:53.293Z,22.27
2023-02-15T23:03:34.544Z,21.70
2023-02-15T23:06:02.810Z,19.60
2023-02-15T23:08:36.177Z,23.33
2023-02-15T23:11:04.582Z,22.47
2023-02-15T23:13:34.151Z,22.20
2023-02-15T23:16:07.168Z,20.90
2023-02-15T23:18:43.266Z,20.53
2023-02-15T23:21:31.580Z,23.20
2023-02-15T23:24:31.322Z,22.20
2023-02-15T23:27:20.360Z,23.43
2023-02-15T23:29:47.992Z,21.23
2023-02-15T23:32:16.670Z,22.50
2023-02-15T23:34:44.382Z,20.97
2023-02-15T23:37:20.428Z,21.90
2023-02-15T23:40:07.992Z,22.60
2023-02-15T23:42:40.776Z,22.40
2023-02-15T23:45:24.444Z,22.23
2023-02-15T23:48:12.367Z,24.10
2023-02-15T23:50:40.501Z,21.43
2023-02-15T23:53:10.715Z,23.07
2023-02-15T23:55:44.549Z,22.47
2023-02-15T23:58:26.040Z,22.83
